sensor_id;sensor_type;location;lat;lon;timestamp;temperature;humidity
31074;DHT22;17730;53.552;9.940;2023-04-06T00:00:25;4.20;99.90
31074;DHT22;17730;53.552;9.940;2023-04-06T00:02:50;4.20;99.90
31074;DHT22;17730;53.552;9.940;2023-04-06T00:05:17;4.20;99.90
31074;DHT22;17730;53.552;9.940;2023-04-06T00:07:43;4.20;99.90
31074;DHT22;17730;53.552;9.940;2023-04-06T00:10:08;4.20;99.90
31074;DHT22;17730;53.552;9.940;2023-04-06T00:12:34;4.20;99.90
31074;DHT22;17730;53.552;9.940;2023-04-06T00:15:00;4.10;99.90
31074;DHT22;17730;53.552;9.940;2023-04-06T00:17:26;4.10;99.90
31074;DHT22;17730;53.552;9.940;2023-04-06T00:19:52;4.10;99.90
31074;DHT22;17730;53.552;9.940;2023-04-06T00:22:17;4.10;99.90
31074;DHT22;17730;53.552;9.940;2023-04-06T00:24:43;4.10;99.90
31074;DHT22;17730;53.552;9.940;2023-04-06T00:27:08;4.10;99.90
31074;DHT22;17730;53.552;9.940;2023-04-06T00:29:34;4.10;1.00
31074;DHT22;17730;53.552;9.940;2023-04-06T00:31:59;4.10;1.00
31074;DHT22;17730;53.552;9.940;2023-04-06T00:34:25;4.20;1.00
31074;DHT22;17730;53.552;9.940;2023-04-06T00:36:50;4.20;1.00
31074;DHT22;17730;53.552;9.940;2023-04-06T00:39:16;4.20;1.00
31074;DHT22;17730;53.552;9.940;2023-04-06T00:41:44;4.20;1.00
31074;DHT22;17730;53.552;9.940;2023-04-06T00:44:11;4.10;1.00
31074;DHT22;17730;53.552;9.940;2023-04-06T00:46:36;4.10;1.00
31074;DHT22;17730;53.552;9.940;2023-04-06T00:49:02;4.10;28.60
31074;DHT22;17730;53.552;9.940;2023-04-06T00:51:27;4.00;66.10
31074;DHT22;17730;53.552;9.940;2023-04-06T00:53:53;4.00;97.10
31074;DHT22;17730;53.552;9.940;2023-04-06T00:56:18;4.00;99.90
31074;DHT22;17730;53.552;9.940;2023-04-06T00:58:44;4.00;99.90
31074;DHT22;17730;53.552;9.940;2023-04-06T01:01:09;4.10;99.90
31074;DHT22;17730;53.552;9.940;2023-04-06T01:03:35;4.10;99.90
31074;DHT22;17730;53.552;9.940;2023-04-06T01:06:00;4.00;99.90
31074;DHT22;17730;53.552;9.940;2023-04-06T01:08:26;4.00;99.90
31074;DHT22;17730;53.552;9.940;2023-04-06T01:10:52;4.00;99.90
31074;DHT22;17730;53.552;9.940;2023-04-06T01:13:17;3.90;99.90
31074;DHT22;17730;53.552;9.940;2023-04-06T01:15:43;3.90;99.90
31074;DHT22;17730;53.552;9.940;2023-04-06T01:18:08;3.90;99.90
31074;DHT22;17730;53.552;9.940;2023-04-06T01:20:35;3.90;1.00
31074;DHT22;17730;53.552;9.940;2023-04-06T01:23:01;3.80;1.00
31074;DHT22;17730;53.552;9.940;2023-04-06T01:25:27;3.80;1.00
31074;DHT22;17730;53.552;9.940;2023-04-06T01:27:52;3.80;7.90
31074;DHT22;17730;53.552;9.940;2023-04-06T01:30:18;3.80;42.50
31074;DHT22;17730;53.552;9.940;2023-04-06T01:32:43;3.80;95.30
31074;DHT22;17730;53.552;9.940;2023-04-06T01:35:09;3.80;99.90
31074;DHT22;17730;53.552;9.940;2023-04-06T01:37:34;3.70;99.90
31074;DHT22;17730;53.552;9.940;2023-04-06T01:40:00;3.70;99.90
31074;DHT22;17730;53.552;9.940;2023-04-06T01:42:26;3.60;99.90
31074;DHT22;17730;53.552;9.940;2023-04-06T01:44:51;3.60;99.90
31074;DHT22;17730;53.552;9.940;2023-04-06T01:47:17;3.60;99.90
31074;DHT22;17730;53.552;9.940;2023-04-06T01:49:42;3.60;99.90
31074;DHT22;17730;53.552;9.940;2023-04-06T01:52:08;3.50;1.00
31074;DHT22;17730;53.552;9.940;2023-04-06T01:54:33;3.50;1.00
31074;DHT22;17730;53.552;9.940;2023-04-06T01:56:59;3.50;33.30
31074;DHT22;17730;53.552;9.940;2023-04-06T01:59:24;3.40;99.90
31074;DHT22;17730;53.552;9.940;2023-04-06T02:01:50;3.50;99.90
31074;DHT22;17730;53.552;9.940;2023-04-06T02:04:15;3.50;99.90
31074;DHT22;17730;53.552;9.940;2023-04-06T02:06:41;3.50;20.80
31074;DHT22;17730;53.552;9.940;2023-04-06T02:09:06;3.60;4.50
31074;DHT22;17730;53.552;9.940;2023-04-06T02:11:32;3.60;71.00
31074;DHT22;17730;53.552;9.940;2023-04-06T02:13:57;3.60;94.30
31074;DHT22;17730;53.552;9.940;2023-04-06T02:16:23;3.50;99.60
31074;DHT22;17730;53.552;9.940;2023-04-06T02:18:49;3.40;99.90
31074;DHT22;17730;53.552;9.940;2023-04-06T02:21:15;3.40;99.90
31074;DHT22;17730;53.552;9.940;2023-04-06T02:23:45;3.40;99.90
31074;DHT22;17730;53.552;9.940;2023-04-06T02:26:11;3.40;1.00
31074;DHT22;17730;53.552;9.940;2023-04-06T02:28:36;3.40;49.60
31074;DHT22;17730;53.552;9.940;2023-04-06T02:31:01;3.40;99.90
31074;DHT22;17730;53.552;9.940;2023-04-06T02:33:27;3.30;99.90
31074;DHT22;17730;53.552;9.940;2023-04-06T02:35:52;3.30;99.90
31074;DHT22;17730;53.552;9.940;2023-04-06T02:38:18;3.30;99.90
31074;DHT22;17730;53.552;9.940;2023-04-06T02:40:43;3.20;1.60
31074;DHT22;17730;53.552;9.940;2023-04-06T02:43:09;3.20;92.50
31074;DHT22;17730;53.552;9.940;2023-04-06T02:45:34;3.20;99.90
31074;DHT22;17730;53.552;9.940;2023-04-06T02:48:00;3.20;99.90
31074;DHT22;17730;53.552;9.940;2023-04-06T02:50:25;3.20;99.90
31074;DHT22;17730;53.552;9.940;2023-04-06T02:52:52;3.10;99.90
31074;DHT22;17730;53.552;9.940;2023-04-06T02:55:17;3.10;1.00
31074;DHT22;17730;53.552;9.940;2023-04-06T02:57:43;3.10;92.30
31074;DHT22;17730;53.552;9.940;2023-04-06T03:00:09;3.10;99.90
31074;DHT22;17730;53.552;9.940;2023-04-06T03:02:34;3.10;99.90
31074;DHT22;17730;53.552;9.940;2023-04-06T03:05:00;3.00;1.00
31074;DHT22;17730;53.552;9.940;2023-04-06T03:07:26;3.00;24.00
31074;DHT22;17730;53.552;9.940;2023-04-06T03:09:51;3.00;99.90
31074;DHT22;17730;53.552;9.940;2023-04-06T03:12:17;3.00;99.90
31074;DHT22;17730;53.552;9.940;2023-04-06T03:14:42;2.90;99.90
31074;DHT22;17730;53.552;9.940;2023-04-06T03:17:08;2.90;1.00
31074;DHT22;17730;53.552;9.940;2023-04-06T03:19:33;2.80;99.90
31074;DHT22;17730;53.552;9.940;2023-04-06T03:21:59;2.80;99.90
31074;DHT22;17730;53.552;9.940;2023-04-06T03:24:24;2.80;99.90
31074;DHT22;17730;53.552;9.940;2023-04-06T03:26:50;2.70;99.90
31074;DHT22;17730;53.552;9.940;2023-04-06T03:29:15;2.70;99.90
31074;DHT22;17730;53.552;9.940;2023-04-06T03:31:41;2.60;99.90
31074;DHT22;17730;53.552;9.940;2023-04-06T03:34:06;2.60;99.90
31074;DHT22;17730;53.552;9.940;2023-04-06T03:36:33;2.50;1.00
31074;DHT22;17730;53.552;9.940;2023-04-06T03:38:58;2.50;1.00
31074;DHT22;17730;53.552;9.940;2023-04-06T03:41:24;2.50;1.00
31074;DHT22;17730;53.552;9.940;2023-04-06T03:43:50;2.40;17.10
31074;DHT22;17730;53.552;9.940;2023-04-06T03:46:15;2.40;65.90
31074;DHT22;17730;53.552;9.940;2023-04-06T03:48:41;2.30;50.70
31074;DHT22;17730;53.552;9.940;2023-04-06T03:51:06;2.30;43.50
31074;DHT22;17730;53.552;9.940;2023-04-06T03:53:32;2.20;63.20
31074;DHT22;17730;53.552;9.940;2023-04-06T03:55:57;2.20;32.90
31074;DHT22;17730;53.552;9.940;2023-04-06T03:58:23;2.20;19.60
31074;DHT22;17730;53.552;9.940;2023-04-06T04:00:48;2.20;37.00
31074;DHT22;17730;53.552;9.940;2023-04-06T04:03:14;2.20;33.20
31074;DHT22;17730;53.552;9.940;2023-04-06T04:05:39;2.20;27.40
31074;DHT22;17730;53.552;9.940;2023-04-06T04:08:05;2.20;34.80
31074;DHT22;17730;53.552;9.940;2023-04-06T04:10:31;2.20;29.10
31074;DHT22;17730;53.552;9.940;2023-04-06T04:12:56;2.20;1.00
31074;DHT22;17730;53.552;9.940;2023-04-06T04:15:21;2.20;1.00
31074;DHT22;17730;53.552;9.940;2023-04-06T04:17:47;2.20;5.10
31074;DHT22;17730;53.552;9.940;2023-04-06T04:20:14;2.20;1.00
31074;DHT22;17730;53.552;9.940;2023-04-06T04:22:40;2.20;1.00
31074;DHT22;17730;53.552;9.940;2023-04-06T04:25:05;2.10;1.00
31074;DHT22;17730;53.552;9.940;2023-04-06T04:27:31;2.10;29.80
31074;DHT22;17730;53.552;9.940;2023-04-06T04:29:56;2.10;1.00
31074;DHT22;17730;53.552;9.940;2023-04-06T04:32:22;2.10;1.00
31074;DHT22;17730;53.552;9.940;2023-04-06T04:34:48;2.10;1.00
31074;DHT22;17730;53.552;9.940;2023-04-06T04:37:13;2.10;1.00
31074;DHT22;17730;53.552;9.940;2023-04-06T04:39:39;2.10;1.00
31074;DHT22;17730;53.552;9.940;2023-04-06T04:42:04;2.10;1.00
31074;DHT22;17730;53.552;9.940;2023-04-06T04:44:30;2.10;11.00
31074;DHT22;17730;53.552;9.940;2023-04-06T04:46:56;2.10;85.40
31074;DHT22;17730;53.552;9.940;2023-04-06T04:49:22;2.20;99.90
31074;DHT22;17730;53.552;9.940;2023-04-06T04:51:47;2.20;1.00
31074;DHT22;17730;53.552;9.940;2023-04-06T04:54:13;2.20;3.60
31074;DHT22;17730;53.552;9.940;2023-04-06T04:56:38;2.20;23.50
31074;DHT22;17730;53.552;9.940;2023-04-06T04:59:04;2.20;59.50
31074;DHT22;17730;53.552;9.940;2023-04-06T05:01:29;2.30;91.60
31074;DHT22;17730;53.552;9.940;2023-04-06T05:03:55;2.20;99.90
31074;DHT22;17730;53.552;9.940;2023-04-06T05:06:20;2.30;99.90
31074;DHT22;17730;53.552;9.940;2023-04-06T05:08:46;2.30;99.90
31074;DHT22;17730;53.552;9.940;2023-04-06T05:11:11;2.40;99.90
31074;DHT22;17730;53.552;9.940;2023-04-06T05:13:37;2.40;99.90
31074;DHT22;17730;53.552;9.940;2023-04-06T05:16:02;2.40;99.90
31074;DHT22;17730;53.552;9.940;2023-04-06T05:18:27;2.40;99.90
31074;DHT22;17730;53.552;9.940;2023-04-06T05:20:53;2.50;99.90
31074;DHT22;17730;53.552;9.940;2023-04-06T05:23:18;2.50;99.90
31074;DHT22;17730;53.552;9.940;2023-04-06T05:25:44;2.60;99.90
31074;DHT22;17730;53.552;9.940;2023-04-06T05:28:10;2.60;99.90
31074;DHT22;17730;53.552;9.940;2023-04-06T05:30:35;2.60;99.90
31074;DHT22;17730;53.552;9.940;2023-04-06T05:33:01;2.70;99.90
31074;DHT22;17730;53.552;9.940;2023-04-06T05:35:27;2.70;99.90
31074;DHT22;17730;53.552;9.940;2023-04-06T05:37:52;2.70;99.90
31074;DHT22;17730;53.552;9.940;2023-04-06T05:40:17;2.80;99.90
31074;DHT22;17730;53.552;9.940;2023-04-06T05:42:43;2.80;99.90
31074;DHT22;17730;53.552;9.940;2023-04-06T05:45:09;2.80;99.90
31074;DHT22;17730;53.552;9.940;2023-04-06T05:47:36;2.90;99.90
31074;DHT22;17730;53.552;9.940;2023-04-06T05:50:02;2.90;99.90
31074;DHT22;17730;53.552;9.940;2023-04-06T05:52:27;3.00;99.90
31074;DHT22;17730;53.552;9.940;2023-04-06T05:54:53;3.00;99.90
31074;DHT22;17730;53.552;9.940;2023-04-06T05:57:19;3.10;99.90
31074;DHT22;17730;53.552;9.940;2023-04-06T05:59:44;3.20;99.90
31074;DHT22;17730;53.552;9.940;2023-04-06T06:02:10;3.20;99.90
31074;DHT22;17730;53.552;9.940;2023-04-06T06:04:35;3.20;91.70
31074;DHT22;17730;53.552;9.940;2023-04-06T06:07:01;3.30;49.20
31074;DHT22;17730;53.552;9.940;2023-04-06T06:09:26;3.40;14.60
31074;DHT22;17730;53.552;9.940;2023-04-06T06:11:52;3.50;1.00
31074;DHT22;17730;53.552;9.940;2023-04-06T06:14:17;3.50;1.00
31074;DHT22;17730;53.552;9.940;2023-04-06T06:16:43;3.60;99.90
31074;DHT22;17730;53.552;9.940;2023-04-06T06:19:08;3.70;99.90
31074;DHT22;17730;53.552;9.940;2023-04-06T06:21:34;3.80;99.90
31074;DHT22;17730;53.552;9.940;2023-04-06T06:23:59;3.90;99.90
31074;DHT22;17730;53.552;9.940;2023-04-06T06:26:25;4.00;99.90
31074;DHT22;17730;53.552;9.940;2023-04-06T06:28:51;4.10;16.10
31074;DHT22;17730;53.552;9.940;2023-04-06T06:31:16;4.20;99.90
31074;DHT22;17730;53.552;9.940;2023-04-06T06:33:42;4.30;99.90
31074;DHT22;17730;53.552;9.940;2023-04-06T06:36:07;4.40;33.80
31074;DHT22;17730;53.552;9.940;2023-04-06T06:38:33;4.50;99.90
31074;DHT22;17730;53.552;9.940;2023-04-06T06:40:58;4.60;99.90
31074;DHT22;17730;53.552;9.940;2023-04-06T06:43:24;4.70;99.90
31074;DHT22;17730;53.552;9.940;2023-04-06T06:45:49;4.90;99.90
31074;DHT22;17730;53.552;9.940;2023-04-06T06:48:15;5.00;22.00
31074;DHT22;17730;53.552;9.940;2023-04-06T06:50:41;5.20;99.90
31074;DHT22;17730;53.552;9.940;2023-04-06T06:53:06;5.30;7.60
31074;DHT22;17730;53.552;9.940;2023-04-06T06:55:31;5.40;99.90
31074;DHT22;17730;53.552;9.940;2023-04-06T06:57:57;5.50;99.90
31074;DHT22;17730;53.552;9.940;2023-04-06T07:00:22;5.60;1.00
31074;DHT22;17730;53.552;9.940;2023-04-06T07:02:48;5.70;99.90
31074;DHT22;17730;53.552;9.940;2023-04-06T07:05:14;5.80;99.90
31074;DHT22;17730;53.552;9.940;2023-04-06T07:07:40;5.80;99.90
31074;DHT22;17730;53.552;9.940;2023-04-06T07:10:06;5.80;99.90
31074;DHT22;17730;53.552;9.940;2023-04-06T07:12:31;5.90;99.90
31074;DHT22;17730;53.552;9.940;2023-04-06T07:14:57;6.10;99.90
31074;DHT22;17730;53.552;9.940;2023-04-06T07:17:22;6.20;88.00
31074;DHT22;17730;53.552;9.940;2023-04-06T07:19:48;6.30;69.90
31074;DHT22;17730;53.552;9.940;2023-04-06T07:22:14;6.40;29.90
31074;DHT22;17730;53.552;9.940;2023-04-06T07:24:39;6.40;6.40
31074;DHT22;17730;53.552;9.940;2023-04-06T07:27:05;6.50;1.00
31074;DHT22;17730;53.552;9.940;2023-04-06T07:29:30;6.60;1.00
31074;DHT22;17730;53.552;9.940;2023-04-06T07:31:56;6.70;1.00
31074;DHT22;17730;53.552;9.940;2023-04-06T07:34:21;6.70;1.00
31074;DHT22;17730;53.552;9.940;2023-04-06T07:36:47;6.90;1.00
31074;DHT22;17730;53.552;9.940;2023-04-06T07:39:12;7.10;1.00
31074;DHT22;17730;53.552;9.940;2023-04-06T07:41:38;7.10;1.00
31074;DHT22;17730;53.552;9.940;2023-04-06T07:44:04;7.20;1.00
31074;DHT22;17730;53.552;9.940;2023-04-06T07:46:30;7.30;1.00
31074;DHT22;17730;53.552;9.940;2023-04-06T07:48:56;7.50;99.90
31074;DHT22;17730;53.552;9.940;2023-04-06T07:51:22;7.60;99.90
31074;DHT22;17730;53.552;9.940;2023-04-06T07:53:47;7.70;99.90
31074;DHT22;17730;53.552;9.940;2023-04-06T07:56:13;7.70;99.90
31074;DHT22;17730;53.552;9.940;2023-04-06T07:58:40;7.80;99.90
31074;DHT22;17730;53.552;9.940;2023-04-06T08:01:06;7.80;99.90
31074;DHT22;17730;53.552;9.940;2023-04-06T08:03:33;8.00;99.90
31074;DHT22;17730;53.552;9.940;2023-04-06T08:05:58;8.10;99.90
31074;DHT22;17730;53.552;9.940;2023-04-06T08:08:24;8.30;99.90
31074;DHT22;17730;53.552;9.940;2023-04-06T08:10:49;8.40;99.90
31074;DHT22;17730;53.552;9.940;2023-04-06T08:13:15;8.60;99.90
31074;DHT22;17730;53.552;9.940;2023-04-06T08:15:41;8.80;99.90
31074;DHT22;17730;53.552;9.940;2023-04-06T08:18:07;8.90;99.90
31074;DHT22;17730;53.552;9.940;2023-04-06T08:20:33;9.10;99.90
31074;DHT22;17730;53.552;9.940;2023-04-06T08:22:59;9.20;99.90
31074;DHT22;17730;53.552;9.940;2023-04-06T08:25:24;9.40;99.90
31074;DHT22;17730;53.552;9.940;2023-04-06T08:27:50;9.50;99.90
31074;DHT22;17730;53.552;9.940;2023-04-06T08:30:15;9.60;99.90
31074;DHT22;17730;53.552;9.940;2023-04-06T08:32:41;9.70;99.90
31074;DHT22;17730;53.552;9.940;2023-04-06T08:35:07;9.80;99.90
31074;DHT22;17730;53.552;9.940;2023-04-06T08:37:33;10.00;99.90
31074;DHT22;17730;53.552;9.940;2023-04-06T08:39:58;10.00;99.90
31074;DHT22;17730;53.552;9.940;2023-04-06T08:42:25;10.10;99.90
31074;DHT22;17730;53.552;9.940;2023-04-06T08:44:50;10.10;99.90
31074;DHT22;17730;53.552;9.940;2023-04-06T08:47:19;10.10;99.90
31074;DHT22;17730;53.552;9.940;2023-04-06T08:49:44;10.20;99.90
31074;DHT22;17730;53.552;9.940;2023-04-06T08:52:11;10.30;99.90
31074;DHT22;17730;53.552;9.940;2023-04-06T08:54:37;10.50;99.90
31074;DHT22;17730;53.552;9.940;2023-04-06T08:57:02;10.60;99.90
31074;DHT22;17730;53.552;9.940;2023-04-06T08:59:28;10.70;99.90
31074;DHT22;17730;53.552;9.940;2023-04-06T09:01:54;10.80;99.90
31074;DHT22;17730;53.552;9.940;2023-04-06T09:04:20;10.70;99.90
31074;DHT22;17730;53.552;9.940;2023-04-06T09:06:46;10.70;99.90
31074;DHT22;17730;53.552;9.940;2023-04-06T09:09:11;10.70;99.90
31074;DHT22;17730;53.552;9.940;2023-04-06T09:14:08;10.80;99.90
31074;DHT22;17730;53.552;9.940;2023-04-06T09:16:44;10.90;99.90
31074;DHT22;17730;53.552;9.940;2023-04-06T09:19:11;11.00;99.90
31074;DHT22;17730;53.552;9.940;2023-04-06T09:21:36;10.90;99.90
31074;DHT22;17730;53.552;9.940;2023-04-06T09:24:02;11.00;99.90
31074;DHT22;17730;53.552;9.940;2023-04-06T09:26:28;11.10;99.90
31074;DHT22;17730;53.552;9.940;2023-04-06T09:28:54;11.20;99.90
31074;DHT22;17730;53.552;9.940;2023-04-06T09:31:27;11.40;99.90
31074;DHT22;17730;53.552;9.940;2023-04-06T09:33:53;11.50;99.90
31074;DHT22;17730;53.552;9.940;2023-04-06T09:36:19;11.60;99.90
31074;DHT22;17730;53.552;9.940;2023-04-06T09:38:58;11.70;99.90
31074;DHT22;17730;53.552;9.940;2023-04-06T09:41:28;11.80;99.90
31074;DHT22;17730;53.552;9.940;2023-04-06T09:44:03;11.80;99.90
31074;DHT22;17730;53.552;9.940;2023-04-06T09:46:30;11.90;99.90
31074;DHT22;17730;53.552;9.940;2023-04-06T09:48:56;11.90;99.90
31074;DHT22;17730;53.552;9.940;2023-04-06T09:51:22;11.90;99.90
31074;DHT22;17730;53.552;9.940;2023-04-06T09:53:49;11.90;99.90
31074;DHT22;17730;53.552;9.940;2023-04-06T09:56:16;12.00;99.90
31074;DHT22;17730;53.552;9.940;2023-04-06T09:58:43;12.00;99.90
31074;DHT22;17730;53.552;9.940;2023-04-06T10:01:10;12.10;99.90
31074;DHT22;17730;53.552;9.940;2023-04-06T10:06:07;12.10;99.90
31074;DHT22;17730;53.552;9.940;2023-04-06T10:08:36;12.10;99.90
31074;DHT22;17730;53.552;9.940;2023-04-06T10:11:05;12.10;99.90
31074;DHT22;17730;53.552;9.940;2023-04-06T10:13:31;12.10;99.90
31074;DHT22;17730;53.552;9.940;2023-04-06T10:15:57;12.20;99.90
31074;DHT22;17730;53.552;9.940;2023-04-06T10:18:22;12.30;99.90
31074;DHT22;17730;53.552;9.940;2023-04-06T10:21:01;12.30;99.90
31074;DHT22;17730;53.552;9.940;2023-04-06T10:23:33;12.40;99.90
31074;DHT22;17730;53.552;9.940;2023-04-06T10:26:00;12.50;99.90
31074;DHT22;17730;53.552;9.940;2023-04-06T10:28:30;12.70;99.90
31074;DHT22;17730;53.552;9.940;2023-04-06T10:30:59;12.70;99.90
31074;DHT22;17730;53.552;9.940;2023-04-06T10:33:25;12.70;99.90
31074;DHT22;17730;53.552;9.940;2023-04-06T10:35:51;12.70;99.90
31074;DHT22;17730;53.552;9.940;2023-04-06T10:38:16;12.70;99.90
31074;DHT22;17730;53.552;9.940;2023-04-06T10:40:46;12.80;99.90
31074;DHT22;17730;53.552;9.940;2023-04-06T10:43:18;12.90;99.90
31074;DHT22;17730;53.552;9.940;2023-04-06T10:45:44;13.00;99.90
31074;DHT22;17730;53.552;9.940;2023-04-06T10:48:18;13.10;99.90
31074;DHT22;17730;53.552;9.940;2023-04-06T10:50:51;13.10;99.90
31074;DHT22;17730;53.552;9.940;2023-04-06T10:53:23;13.20;99.90
31074;DHT22;17730;53.552;9.940;2023-04-06T10:55:52;13.20;99.90
31074;DHT22;17730;53.552;9.940;2023-04-06T10:58:19;13.30;99.90
31074;DHT22;17730;53.552;9.940;2023-04-06T11:00:48;13.30;99.90
31074;DHT22;17730;53.552;9.940;2023-04-06T11:03:14;13.30;99.90
31074;DHT22;17730;53.552;9.940;2023-04-06T11:05:43;13.30;99.90
31074;DHT22;17730;53.552;9.940;2023-04-06T11:08:09;13.40;99.90
31074;DHT22;17730;53.552;9.940;2023-04-06T11:10:35;13.40;99.90
31074;DHT22;17730;53.552;9.940;2023-04-06T11:13:00;13.40;99.90
31074;DHT22;17730;53.552;9.940;2023-04-06T11:15:26;13.60;99.90
31074;DHT22;17730;53.552;9.940;2023-04-06T11:17:51;13.70;99.90
31074;DHT22;17730;53.552;9.940;2023-04-06T11:20:17;14.00;99.90
31074;DHT22;17730;53.552;9.940;2023-04-06T11:22:51;14.00;99.90
31074;DHT22;17730;53.552;9.940;2023-04-06T11:25:16;14.20;99.90
31074;DHT22;17730;53.552;9.940;2023-04-06T11:27:42;14.20;99.90
31074;DHT22;17730;53.552;9.940;2023-04-06T11:30:08;14.10;99.90
31074;DHT22;17730;53.552;9.940;2023-04-06T11:32:44;14.10;99.90
31074;DHT22;17730;53.552;9.940;2023-04-06T11:35:10;14.20;99.90
31074;DHT22;17730;53.552;9.940;2023-04-06T11:37:36;14.30;99.90
31074;DHT22;17730;53.552;9.940;2023-04-06T11:40:02;14.30;99.90
31074;DHT22;17730;53.552;9.940;2023-04-06T11:42:28;14.30;99.90
31074;DHT22;17730;53.552;9.940;2023-04-06T11:44:55;14.30;99.90
31074;DHT22;17730;53.552;9.940;2023-04-06T11:47:27;14.20;99.90
31074;DHT22;17730;53.552;9.940;2023-04-06T11:49:53;14.30;99.90
31074;DHT22;17730;53.552;9.940;2023-04-06T11:52:19;14.20;99.90
31074;DHT22;17730;53.552;9.940;2023-04-06T11:54:46;14.40;99.90
31074;DHT22;17730;53.552;9.940;2023-04-06T11:57:11;14.30;99.90
31074;DHT22;17730;53.552;9.940;2023-04-06T11:59:37;14.30;99.90
31074;DHT22;17730;53.552;9.940;2023-04-06T12:02:02;14.50;99.90
31074;DHT22;17730;53.552;9.940;2023-04-06T12:04:28;14.60;99.90
31074;DHT22;17730;53.552;9.940;2023-04-06T12:06:54;14.60;99.90
31074;DHT22;17730;53.552;9.940;2023-04-06T12:09:19;14.60;99.90
31074;DHT22;17730;53.552;9.940;2023-04-06T12:11:45;14.60;99.90
31074;DHT22;17730;53.552;9.940;2023-04-06T12:14:11;14.50;99.90
31074;DHT22;17730;53.552;9.940;2023-04-06T12:16:37;14.60;99.90
31074;DHT22;17730;53.552;9.940;2023-04-06T12:19:02;14.60;99.90
31074;DHT22;17730;53.552;9.940;2023-04-06T12:21:28;14.70;99.90
31074;DHT22;17730;53.552;9.940;2023-04-06T12:23:54;14.70;99.90
31074;DHT22;17730;53.552;9.940;2023-04-06T12:26:20;14.80;99.90
31074;DHT22;17730;53.552;9.940;2023-04-06T12:28:46;14.90;99.90
31074;DHT22;17730;53.552;9.940;2023-04-06T12:31:18;14.80;99.90
31074;DHT22;17730;53.552;9.940;2023-04-06T12:33:46;14.90;99.90
31074;DHT22;17730;53.552;9.940;2023-04-06T12:36:12;14.90;99.90
31074;DHT22;17730;53.552;9.940;2023-04-06T12:38:38;14.80;99.90
31074;DHT22;17730;53.552;9.940;2023-04-06T12:41:05;14.70;99.90
31074;DHT22;17730;53.552;9.940;2023-04-06T12:43:30;14.70;99.90
31074;DHT22;17730;53.552;9.940;2023-04-06T12:45:56;14.80;99.90
31074;DHT22;17730;53.552;9.940;2023-04-06T12:48:21;14.80;99.90
31074;DHT22;17730;53.552;9.940;2023-04-06T12:50:53;14.80;99.90
31074;DHT22;17730;53.552;9.940;2023-04-06T12:53:19;14.90;99.90
31074;DHT22;17730;53.552;9.940;2023-04-06T12:55:45;14.80;99.90
31074;DHT22;17730;53.552;9.940;2023-04-06T12:58:10;14.70;99.90
31074;DHT22;17730;53.552;9.940;2023-04-06T13:00:36;14.80;99.90
31074;DHT22;17730;53.552;9.940;2023-04-06T13:03:02;14.90;99.90
31074;DHT22;17730;53.552;9.940;2023-04-06T13:05:27;15.00;99.90
31074;DHT22;17730;53.552;9.940;2023-04-06T13:07:53;14.90;99.90
31074;DHT22;17730;53.552;9.940;2023-04-06T13:10:18;14.90;99.90
31074;DHT22;17730;53.552;9.940;2023-04-06T13:12:46;15.00;99.90
31074;DHT22;17730;53.552;9.940;2023-04-06T13:15:11;15.10;99.90
31074;DHT22;17730;53.552;9.940;2023-04-06T13:17:37;15.10;99.90
31074;DHT22;17730;53.552;9.940;2023-04-06T13:20:02;15.00;99.90
31074;DHT22;17730;53.552;9.940;2023-04-06T13:22:28;15.10;99.90
31074;DHT22;17730;53.552;9.940;2023-04-06T13:24:54;15.10;99.90
31074;DHT22;17730;53.552;9.940;2023-04-06T13:27:19;15.20;99.90
31074;DHT22;17730;53.552;9.940;2023-04-06T13:29:45;15.10;99.90
31074;DHT22;17730;53.552;9.940;2023-04-06T13:32:10;15.10;99.90
31074;DHT22;17730;53.552;9.940;2023-04-06T13:34:36;15.10;99.90
31074;DHT22;17730;53.552;9.940;2023-04-06T13:37:02;15.20;99.90
31074;DHT22;17730;53.552;9.940;2023-04-06T13:39:27;15.20;99.90
31074;DHT22;17730;53.552;9.940;2023-04-06T13:41:53;15.20;99.90
31074;DHT22;17730;53.552;9.940;2023-04-06T13:44:19;15.10;99.90
31074;DHT22;17730;53.552;9.940;2023-04-06T13:46:45;15.00;99.90
31074;DHT22;17730;53.552;9.940;2023-04-06T13:49:10;15.00;99.90
31074;DHT22;17730;53.552;9.940;2023-04-06T13:51:36;15.00;99.90
31074;DHT22;17730;53.552;9.940;2023-04-06T13:54:01;14.90;99.90
31074;DHT22;17730;53.552;9.940;2023-04-06T13:56:27;15.00;99.90
31074;DHT22;17730;53.552;9.940;2023-04-06T13:58:55;15.00;99.90
31074;DHT22;17730;53.552;9.940;2023-04-06T14:01:21;15.10;99.90
31074;DHT22;17730;53.552;9.940;2023-04-06T14:03:48;15.10;99.90
31074;DHT22;17730;53.552;9.940;2023-04-06T14:06:13;15.20;99.90
31074;DHT22;17730;53.552;9.940;2023-04-06T14:08:39;15.30;99.90
31074;DHT22;17730;53.552;9.940;2023-04-06T14:11:05;15.30;99.90
31074;DHT22;17730;53.552;9.940;2023-04-06T14:13:33;15.30;99.90
31074;DHT22;17730;53.552;9.940;2023-04-06T14:15:59;15.30;99.90
31074;DHT22;17730;53.552;9.940;2023-04-06T14:18:24;15.30;99.90
31074;DHT22;17730;53.552;9.940;2023-04-06T14:20:53;15.30;99.90
31074;DHT22;17730;53.552;9.940;2023-04-06T14:23:19;15.30;99.90
31074;DHT22;17730;53.552;9.940;2023-04-06T14:25:45;15.20;99.90
31074;DHT22;17730;53.552;9.940;2023-04-06T14:28:12;15.20;99.90
31074;DHT22;17730;53.552;9.940;2023-04-06T14:30:37;15.10;99.90
31074;DHT22;17730;53.552;9.940;2023-04-06T14:33:03;15.10;99.90
31074;DHT22;17730;53.552;9.940;2023-04-06T14:35:28;14.90;99.90
31074;DHT22;17730;53.552;9.940;2023-04-06T14:37:57;14.80;99.90
31074;DHT22;17730;53.552;9.940;2023-04-06T14:40:23;14.90;99.90
31074;DHT22;17730;53.552;9.940;2023-04-06T14:42:49;14.70;99.90
31074;DHT22;17730;53.552;9.940;2023-04-06T14:45:16;14.70;99.90
31074;DHT22;17730;53.552;9.940;2023-04-06T14:47:44;14.60;99.90
31074;DHT22;17730;53.552;9.940;2023-04-06T14:50:10;14.70;99.90
31074;DHT22;17730;53.552;9.940;2023-04-06T14:52:36;14.70;99.90
31074;DHT22;17730;53.552;9.940;2023-04-06T14:55:01;14.70;99.90
31074;DHT22;17730;53.552;9.940;2023-04-06T14:57:27;14.80;99.90
31074;DHT22;17730;53.552;9.940;2023-04-06T14:59:53;14.70;99.90
31074;DHT22;17730;53.552;9.940;2023-04-06T15:02:18;14.80;99.90
31074;DHT22;17730;53.552;9.940;2023-04-06T15:04:44;14.70;99.90
31074;DHT22;17730;53.552;9.940;2023-04-06T15:07:10;14.60;99.90
31074;DHT22;17730;53.552;9.940;2023-04-06T15:09:36;14.50;99.90
31074;DHT22;17730;53.552;9.940;2023-04-06T15:12:01;14.50;99.90
31074;DHT22;17730;53.552;9.940;2023-04-06T15:14:27;14.50;99.90
31074;DHT22;17730;53.552;9.940;2023-04-06T15:16:52;14.50;99.90
31074;DHT22;17730;53.552;9.940;2023-04-06T15:19:18;14.50;99.90
31074;DHT22;17730;53.552;9.940;2023-04-06T15:21:44;14.50;99.90
31074;DHT22;17730;53.552;9.940;2023-04-06T15:24:09;14.50;99.90
31074;DHT22;17730;53.552;9.940;2023-04-06T15:26:35;14.50;99.90
31074;DHT22;17730;53.552;9.940;2023-04-06T15:29:02;14.50;99.90
31074;DHT22;17730;53.552;9.940;2023-04-06T15:31:28;14.50;99.90
31074;DHT22;17730;53.552;9.940;2023-04-06T15:33:54;14.40;99.90
31074;DHT22;17730;53.552;9.940;2023-04-06T15:36:24;14.30;99.90
31074;DHT22;17730;53.552;9.940;2023-04-06T15:38:50;14.30;99.90